Jack Robertson — WDE5993 — position and weather

sailwx.info

Track history (hours):
 
Tides and Currents Weather Stations Pressure Air Temp Water Temp Dewpoint Dewpoint Depression Visibility Wind Speed Wind Dir Waves Ship Positions

Oceanographic research ship Jack Robertson (United States)

Owner: University of Washington Applied Physics Laboratory, Seattle, WA. More information available from US FCC via Universal Licensing System and Coast Guard Vessel Documentation Center.

Last reported at 2019-Aug-21 00:45 UTC. Time now 2019-Aug-24 22:04 UTC.
Position N 47°39' W 122°19'.

; draft 1.7 m.

Type: Other ship. MMSI: 367374350.

Date/timePositionNaut miles runAvg speedWind from/ knotsBaromVisibWave heightAir tempDewpointWater temp
2019-Aug-21 00:45N 47°39' W 122°19'1 3.7
2019-Aug-21 00:31N 47°39' W 122°20'3 5.6
2019-Aug-21 00:00N 47°40' W 122°24'1 1.3
2019-Aug-20 23:30N 47°40' W 122°25'2 4.9
2019-Aug-20 23:00N 47°43' W 122°24'0 0.2
2019-Aug-20 22:30N 47°43' W 122°25'0 0.7
2019-Aug-20 22:00N 47°43' W 122°24'0 0.9
2019-Aug-20 21:31N 47°43' W 122°24'0 0.2
2019-Aug-20 21:00N 47°43' W 122°24'0 0.2
2019-Aug-20 20:30N 47°43' W 122°24'0 0.1
2019-Aug-20 20:01N 47°43' W 122°24'0 0.1
2019-Aug-20 19:31N 47°43' W 122°24'0 0.2
2019-Aug-20 19:01N 47°43' W 122°24'0 0.3
2019-Aug-20 18:31N 47°43' W 122°24'0 0.2
2019-Aug-20 18:01N 47°43' W 122°25'0 0.4
2019-Aug-20 17:30N 47°43' W 122°25'0 0.2
2019-Aug-20 17:01N 47°43' W 122°25'0 0.9
2019-Aug-20 16:31N 47°43' W 122°25'3 5.7
2019-Aug-20 16:00N 47°40' W 122°24'2 3.7
2019-Aug-20 15:30N 47°39' W 122°21'2 3.7
2019-Aug-20 15:00N 47°39' W 122°19'0 0.0
2019-Aug-20 14:30N 47°39' W 122°19'  
2019-Aug-14 16:23N 47°39' W 122°19'0 0.0
2019-Aug-14 16:00N 47°39' W 122°19'1 1.2
2019-Aug-14 15:30N 47°39' W 122°18'2 4.6
2019-Aug-14 15:00N 47°40' W 122°15'0 0.4
2019-Aug-14 14:30N 47°40' W 122°15'3 5.6
2019-Aug-14 14:00N 47°39' W 122°19'0 0.1
2019-Aug-14 13:31N 47°39' W 122°19'  
Track history (hours):
 
Tides and Currents Weather Stations Pressure Air Temp Water Temp Dewpoint Dewpoint Depression Visibility Wind Speed Wind Dir Waves Ship Positions

Oceanographic research ship Jack Robertson (United States)

Owner: University of Washington Applied Physics Laboratory, Seattle, WA. More information available from US FCC via Universal Licensing System and Coast Guard Vessel Documentation Center.

Last reported at 2019-Aug-21 00:45 UTC. Time now 2019-Aug-24 22:04 UTC.
Position N 47°39' W 122°19'.

; draft 1.7 m.

Type: Other ship. MMSI: 367374350.

Date/timePositionNaut miles runAvg speedWind from/ knotsBaromVisibWave heightAir tempDewpointWater temp
2019-Aug-21 00:45N 47°39' W 122°19'1 3.7
2019-Aug-21 00:31N 47°39' W 122°20'3 5.6
2019-Aug-21 00:00N 47°40' W 122°24'1 1.3
2019-Aug-20 23:30N 47°40' W 122°25'2 4.9
2019-Aug-20 23:00N 47°43' W 122°24'0 0.2
2019-Aug-20 22:30N 47°43' W 122°25'0 0.7
2019-Aug-20 22:00N 47°43' W 122°24'0 0.9
2019-Aug-20 21:31N 47°43' W 122°24'0 0.2
2019-Aug-20 21:00N 47°43' W 122°24'0 0.2
2019-Aug-20 20:30N 47°43' W 122°24'0 0.1
2019-Aug-20 20:01N 47°43' W 122°24'0 0.1
2019-Aug-20 19:31N 47°43' W 122°24'0 0.2
2019-Aug-20 19:01N 47°43' W 122°24'0 0.3
2019-Aug-20 18:31N 47°43' W 122°24'0 0.2
2019-Aug-20 18:01N 47°43' W 122°25'0 0.4
2019-Aug-20 17:30N 47°43' W 122°25'0 0.2
2019-Aug-20 17:01N 47°43' W 122°25'0 0.9
2019-Aug-20 16:31N 47°43' W 122°25'3 5.7
2019-Aug-20 16:00N 47°40' W 122°24'2 3.7
2019-Aug-20 15:30N 47°39' W 122°21'2 3.7
2019-Aug-20 15:00N 47°39' W 122°19'0 0.0
2019-Aug-20 14:30N 47°39' W 122°19'  
2019-Aug-14 16:23N 47°39' W 122°19'0 0.0
2019-Aug-14 16:00N 47°39' W 122°19'1 1.2
2019-Aug-14 15:30N 47°39' W 122°18'2 4.6
2019-Aug-14 15:00N 47°40' W 122°15'0 0.4
2019-Aug-14 14:30N 47°40' W 122°15'3 5.6
2019-Aug-14 14:00N 47°39' W 122°19'0 0.1
2019-Aug-14 13:31N 47°39' W 122°19'  

Dump ship's entire track history